Airfield :
LOGIN :

Register | Disclaimer

   EN    FR    IT 

 










Legend :    VFR   Marginal VFR   IFR   Intensive IFR   Very Intensive IFR
Visi :
Ceiling :
>= 8 km
>= 3000ft
5 to 8 km
1000 to 3000 ft
1500m to 5 km
500 to 1000 ft
800 to 1500m
200 to 500 ft
< 800m
< 200 ft
Symbols :   Thunderstorms  Fog  Heavy snow  Heavy precipitations  Wind > 20 kt
SIGMETs :     Misc.  Thunderstorms  Icing  Turbulence  Mountain Waves  Volcanic Ashes






- Airport Elevation : 286 ft
- IATA code : FFD


EGVA - RAF Fairford

CURRENT METAR :
  • 212256Z AUTO 24005KT 9999 CLR 03/03 A3006 RMK AO2 SLP185 T00320031 $

EXPIRED METARs :
  • 212156Z AUTO 24005KT 9999 CLR 04/03 A3006 RMK AO2 SLP185 T00390027 $
  • 212056Z AUTO 28004KT 9999 CLR 04/02 A3006 RMK AO2 SLP185 T00410024 52019 $

TAF AMD TAF EGVA
Valid from the 21 at 17:00 until the 22 at 16:00 UTC


211700Z 2117/2216 31012KT 9999 FEW040 FEW100 QNH2996INS
BECMG 2122/2123 28010G15KT 9999 FEW015 SCT020 QNH2995INS
BECMG 2211/2212 27015G25KT 9999 SCT030 BKN040 520002 QNH2991INS TX11/2117Z TN06/2203Z LAST NO AMDS AFT 2117 NEXT 2205



MET'MAP, your aeronautical weather chart ! - Copyright ORBIFLY December 2007 - Disclaimer

ORBIFLY MET'MAP TEAM :

Programming & Development : Alexandra Zaïnal
Concept & original design : Baudouin d'Aumeries
Assistance for programming : Marc-Olivier Méhu
Technical & hardware support : Manuel Goepfert

Contact : metmap@orbifly.com




SOURCES & CREDITS :

   NOAA